Pagrindinis puslapis
METAR-TAF:

METAR-TAF

Oro uostai :

Porto Seguro, Bahija, Brazilija

platuma: 16-26S, ilguma: 039-04W, Aukštis: 51 m

Dabartinis oras

Ataskaita buvo paskelbta 6 minutes, ne 08:00 UTC
Vėjas 3 kt iš Vakarų
Temperatūra 21°C
Drėgmė 94%
Slėgis 1014 hPa
Matomumas 10 km arba daugiau
Išsisklaidę debesys ne aukštis 2300 ft

METAR: SBPS 190800Z 27003KT 9999 SCT023 21/20 Q1014

Laikas: 05:06 (08:06 UTC)

Prognozė

Ataskaita buvo paskelbta 5 valandos ir 6 minutes, ne 03:00 UTC
Prognozė galioja nuo 19 metu 06 UTC su 20 metu 06 UTC
Vėjas 5 kt iš Vakarų
Matomumas 10 km arba daugiau
Išsisklaidę debesys ne aukštis 2000 ft
Tapsmas
nuo 19 metu 11 UTC su 19 metu 13 UTC
Vėjas 10 kt iš Rytų

TAF: SBPS 190300Z 1906/2006 26005KT 9999 SCT020 TN22/1908Z TX29/1916Z BECMG 1911/1913 09010KT RMK PHD

Orai ataskaitas ir orų prognozės (METAR, TAF).

turimą stotys yra geltonos ir raudonos taškus žemėlapyje.

Perkelti pele per norėdami pamatyti stoties vardą.

Tada spustelėkite, norėdami matyti oro stebėjimo ir prognozės.

Norėdami pakeisti žemėlapį: spustelėkite ant žalios mygtukų su juodo kryžiaus žemyn,; žalią mygtuką su brūkšneliu, jei norite nutolinti; arba žalių rodyklių gretimoms žemėlapius.


METAR-TAF: